createdAt,value
2018-04-17T00:00:35.073Z,98756.97
2018-04-17T00:03:02.656Z,98761.33
2018-04-17T00:05:30.226Z,98788.02
2018-04-17T00:07:57.913Z,98812.59
2018-04-17T00:10:25.869Z,98816.14
2018-04-17T00:12:53.461Z,98829.31
2018-04-17T00:15:21.172Z,98811.23
2018-04-17T00:17:48.756Z,98798.19
2018-04-17T00:20:16.336Z,98816.83
2018-04-17T00:22:44.924Z,98822.09
2018-04-17T00:25:12.569Z,98827.03
2018-04-17T00:27:40.379Z,98849.78
2018-04-17T00:30:08.185Z,98850.63
2018-04-17T00:32:35.776Z,98834.89
2018-04-17T00:35:03.352Z,98821.08
2018-04-17T00:37:31.144Z,98816.54
2018-04-17T00:39:58.732Z,98830.59
2018-04-17T00:42:26.327Z,98833.27
2018-04-17T00:44:54.021Z,98823.84
2018-04-17T00:47:21.604Z,98815.59
2018-04-17T00:49:49.179Z,98815.00
2018-04-17T00:52:16.875Z,98823.91
2018-04-17T00:54:44.556Z,98820.28
2018-04-17T00:57:12.201Z,98829.26
2018-04-17T00:59:39.846Z,98832.30
2018-04-17T01:02:07.491Z,98819.55
2018-04-17T01:04:35.148Z,98817.23
2018-04-17T01:07:02.924Z,98818.69
2018-04-17T01:09:30.508Z,98817.16
2018-04-17T01:11:58.087Z,98832.77
2018-04-17T01:14:25.919Z,98832.61
2018-04-17T01:16:53.573Z,98827.62
2018-04-17T01:19:21.212Z,98805.63
2018-04-17T01:21:48.848Z,98797.42
2018-04-17T01:24:16.553Z,98802.08
2018-04-17T01:26:44.143Z,98796.73
2018-04-17T01:29:11.841Z,98786.25
2018-04-17T01:31:39.480Z,98774.20
2018-04-17T01:34:07.214Z,98762.31
2018-04-17T01:36:34.894Z,98765.02
2018-04-17T01:39:02.538Z,98768.58
2018-04-17T01:41:30.128Z,98763.92
2018-04-17T01:43:57.996Z,98740.71
2018-04-17T01:46:25.586Z,98707.26
2018-04-17T01:48:53.179Z,98679.27
2018-04-17T01:51:20.979Z,98661.89
2018-04-17T01:53:48.574Z,98648.49
2018-04-17T01:56:16.266Z,98641.70
2018-04-17T01:58:44.006Z,98639.55
2018-04-17T02:01:11.657Z,98633.88
2018-04-17T02:03:39.280Z,98628.21
2018-04-17T02:06:07.010Z,98639.44
2018-04-17T02:08:34.586Z,98641.52
2018-04-17T02:11:02.196Z,98637.37
2018-04-17T02:13:29.916Z,98642.80
2018-04-17T02:15:57.496Z,98643.36
2018-04-17T02:18:25.138Z,98656.53
2018-04-17T02:20:52.822Z,98704.61
2018-04-17T02:23:20.523Z,98705.67
2018-04-17T02:25:48.318Z,98719.94
2018-04-17T02:30:49.869Z,98714.33
2018-04-17T02:33:17.541Z,98716.27
2018-04-17T02:35:45.155Z,98716.48
2018-04-17T02:38:12.904Z,98714.08
2018-04-17T02:40:40.782Z,98708.00
2018-04-17T02:43:08.509Z,98706.97
2018-04-17T02:45:36.105Z,98707.55
2018-04-17T02:48:03.776Z,98725.31
2018-04-17T02:50:31.388Z,98727.59
2018-04-17T02:52:59.003Z,98730.02
2018-04-17T02:55:26.724Z,98736.03
2018-04-17T02:57:54.328Z,98728.44
2018-04-17T03:00:21.972Z,98721.81
2018-04-17T03:02:49.661Z,98730.72
2018-04-17T03:05:17.332Z,98723.23
2018-04-17T03:07:44.992Z,98719.86
2018-04-17T03:10:12.705Z,98718.51
2018-04-17T03:12:40.370Z,98732.20
2018-04-17T03:15:08.062Z,98735.08
2018-04-17T03:17:35.915Z,98743.87
2018-04-17T03:20:03.629Z,98752.95
2018-04-17T03:22:31.386Z,98741.24
2018-04-17T03:24:59.141Z,98745.17
2018-04-17T03:27:27.744Z,98756.89
2018-04-17T03:29:55.479Z,98754.23
2018-04-17T03:32:23.221Z,98754.14
2018-04-17T03:34:50.818Z,98755.80
2018-04-17T03:37:18.445Z,98758.34
2018-04-17T03:39:46.080Z,98761.04
2018-04-17T03:42:13.757Z,98756.05
2018-04-17T03:44:42.121Z,98744.21
2018-04-17T03:47:09.804Z,98739.73
2018-04-17T03:49:37.446Z,98736.39
2018-04-17T03:52:05.668Z,98724.47
2018-04-17T03:54:33.359Z,98722.73
2018-04-17T03:57:01.704Z,98734.28
2018-04-17T03:59:29.280Z,98727.34
2018-04-17T04:01:56.956Z,98721.45
2018-04-17T04:04:24.591Z,98717.82
2018-04-17T04:06:52.194Z,98722.05
2018-04-17T04:09:19.990Z,98733.38
2018-04-17T04:11:47.649Z,98741.03
2018-04-17T04:14:15.233Z,98752.44
2018-04-17T04:16:54.728Z,98762.55
2018-04-17T04:19:33.924Z,98762.20
2018-04-17T04:22:13.328Z,98776.03
2018-04-17T04:24:52.616Z,98785.20
2018-04-17T04:27:20.395Z,98775.70
2018-04-17T04:29:48.684Z,98782.89
2018-04-17T04:32:16.259Z,98791.27
2018-04-17T04:34:43.899Z,98803.39
2018-04-17T04:37:12.239Z,98800.75
2018-04-17T04:39:39.874Z,98793.95
2018-04-17T04:42:07.583Z,98790.20
2018-04-17T04:44:35.185Z,98788.55
2018-04-17T04:47:02.767Z,98805.16
2018-04-17T04:49:30.407Z,98810.58
2018-04-17T04:51:58.049Z,98812.94
2018-04-17T04:54:25.613Z,98814.85
2018-04-17T04:56:53.324Z,98813.04
2018-04-17T04:59:20.903Z,98809.45
2018-04-17T05:01:48.491Z,98804.13
2018-04-17T05:04:16.124Z,98793.73
2018-04-17T05:06:43.760Z,98789.64
2018-04-17T05:09:11.896Z,98795.13
2018-04-17T05:11:39.532Z,98791.78
2018-04-17T05:14:07.155Z,98790.80
2018-04-17T05:16:35.018Z,98789.17
2018-04-17T05:19:02.742Z,98778.15
2018-04-17T05:21:30.315Z,98769.03
2018-04-17T05:23:57.920Z,98763.60
2018-04-17T05:26:25.643Z,98745.03
2018-04-17T05:28:53.224Z,98731.79
2018-04-17T05:31:20.891Z,98717.88
2018-04-17T05:33:48.499Z,98703.87
2018-04-17T05:36:16.079Z,98693.17
2018-04-17T05:38:43.724Z,98686.36
2018-04-17T05:41:11.444Z,98689.55
2018-04-17T05:43:39.032Z,98730.92
2018-04-17T05:46:06.672Z,98738.84
2018-04-17T05:48:34.323Z,98733.92
2018-04-17T05:51:01.924Z,98759.72
2018-04-17T05:53:29.501Z,98749.91
2018-04-17T05:55:57.206Z,98708.17
2018-04-17T05:58:24.759Z,98684.69
2018-04-17T06:00:52.340Z,98643.80
2018-04-17T06:03:19.973Z,98610.74
2018-04-17T06:05:47.878Z,98582.42
2018-04-17T06:08:15.517Z,98587.81
2018-04-17T06:10:43.180Z,98612.13
2018-04-17T06:13:11.459Z,98653.75
2018-04-17T06:15:39.888Z,98692.48
2018-04-17T06:18:07.615Z,98734.92
2018-04-17T06:20:35.220Z,98741.52
2018-04-17T06:23:02.820Z,98759.94
2018-04-17T06:25:30.574Z,98759.11
2018-04-17T06:27:58.240Z,98766.20
2018-04-17T06:30:25.847Z,98785.11
2018-04-17T06:32:53.725Z,98797.05
2018-04-17T06:35:21.344Z,98796.54
2018-04-17T06:37:48.942Z,98793.41
2018-04-17T06:40:16.652Z,98817.91
2018-04-17T06:42:44.243Z,98830.26
2018-04-17T06:45:11.885Z,98807.98
2018-04-17T06:47:39.629Z,98834.60
2018-04-17T06:50:07.173Z,98843.94
2018-04-17T06:52:34.826Z,98844.56
2018-04-17T06:55:02.460Z,98866.88
2018-04-17T06:57:30.114Z,98864.30
2018-04-17T06:59:57.700Z,98849.69
2018-04-17T07:02:25.324Z,98866.08
2018-04-17T07:04:52.967Z,98862.17
2018-04-17T07:07:20.548Z,98859.30
2018-04-17T07:09:48.262Z,98848.30
2018-04-17T07:12:16.388Z,98868.19
2018-04-17T07:14:44.063Z,98873.67
2018-04-17T07:17:11.700Z,98873.84
2018-04-17T07:19:39.337Z,98877.21
2018-04-17T07:22:07.918Z,98867.47
2018-04-17T07:24:35.632Z,98840.36
2018-04-17T07:27:03.216Z,98858.89
2018-04-17T07:29:30.820Z,98843.63
2018-04-17T07:31:59.304Z,98840.75
2018-04-17T07:34:26.936Z,98834.92
2018-04-17T07:36:54.577Z,98815.12
2018-04-17T07:39:22.251Z,98816.81
2018-04-17T07:41:50.524Z,98829.41
2018-04-17T07:44:18.200Z,98829.99
2018-04-17T07:46:46.081Z,98819.98
2018-04-17T07:49:13.728Z,98812.43
2018-04-17T07:51:41.300Z,98797.80
2018-04-17T07:54:08.937Z,98779.66
2018-04-17T07:56:36.580Z,98763.66
2018-04-17T07:59:04.241Z,98779.89
2018-04-17T08:01:31.952Z,98793.14
2018-04-17T08:03:59.601Z,98795.60
2018-04-17T08:06:27.207Z,98790.44
2018-04-17T08:08:54.934Z,98784.16
2018-04-17T08:11:22.596Z,98753.63
2018-04-17T08:13:50.223Z,98708.01
2018-04-17T08:16:17.858Z,98711.67
2018-04-17T08:18:45.437Z,98772.30
2018-04-17T08:21:13.019Z,98793.48
2018-04-17T08:23:40.742Z,98767.13
2018-04-17T08:26:08.335Z,98812.23
2018-04-17T08:28:36.004Z,98804.56
2018-04-17T08:31:03.800Z,98785.59
2018-04-17T08:33:31.388Z,98807.78
2018-04-17T08:35:59.325Z,98821.16
2018-04-17T08:38:26.973Z,98823.39
2018-04-17T08:40:54.616Z,98823.91
2018-04-17T08:43:22.265Z,98836.42
2018-04-17T08:45:49.949Z,98834.53
2018-04-17T08:48:17.593Z,98825.38
2018-04-17T08:50:45.187Z,98807.23
2018-04-17T08:53:12.811Z,98820.89
2018-04-17T08:55:40.404Z,98843.84
2018-04-17T08:58:08.065Z,98843.51
2018-04-17T09:00:35.776Z,98852.27
2018-04-17T09:03:03.429Z,98850.08
2018-04-17T09:05:31.052Z,98849.41
2018-04-17T09:07:58.691Z,98845.83
2018-04-17T09:10:26.277Z,98841.70
2018-04-17T09:12:53.876Z,98843.20
2018-04-17T09:15:21.577Z,98838.53
2018-04-17T09:17:49.163Z,98836.62
2018-04-17T09:20:16.753Z,98829.63
2018-04-17T09:22:44.444Z,98824.25
2018-04-17T09:25:12.118Z,98819.44
2018-04-17T09:27:39.725Z,98834.70
2018-04-17T09:30:07.490Z,98825.77
2018-04-17T09:32:35.080Z,98826.58
2018-04-17T09:35:02.696Z,98829.05
2018-04-17T09:37:30.597Z,98830.69
2018-04-17T09:39:58.195Z,98828.37
2018-04-17T09:42:25.802Z,98823.12
2018-04-17T09:44:53.461Z,98820.66
2018-04-17T09:47:21.092Z,98814.20
2018-04-17T09:49:48.757Z,98821.41
2018-04-17T09:52:16.452Z,98818.56
2018-04-17T09:54:44.040Z,98811.63
2018-04-17T09:57:11.624Z,98823.33
2018-04-17T09:59:39.349Z,98815.62
2018-04-17T10:02:06.936Z,98809.54
2018-04-17T10:04:34.507Z,98810.47
2018-04-17T10:07:02.129Z,98813.93
2018-04-17T10:09:29.765Z,98831.77
2018-04-17T10:11:57.402Z,98826.27
2018-04-17T10:14:25.044Z,98832.19
2018-04-17T10:16:52.684Z,98821.96
2018-04-17T10:19:20.295Z,98813.69
2018-04-17T10:21:48.158Z,98811.92
2018-04-17T10:24:15.826Z,98820.78
2018-04-17T10:26:43.469Z,98820.99
2018-04-17T10:29:11.945Z,98822.39
2018-04-17T10:31:39.575Z,98814.84
2018-04-17T10:34:07.173Z,98815.74
2018-04-17T10:36:34.804Z,98815.66
2018-04-17T10:39:02.664Z,98814.61
2018-04-17T10:41:30.232Z,98812.89
2018-04-17T10:43:57.854Z,98811.02
2018-04-17T10:46:25.560Z,98815.74
2018-04-17T10:48:53.124Z,98815.32
2018-04-17T10:51:20.789Z,98819.03
2018-04-17T10:53:48.411Z,98814.23
2018-04-17T10:56:15.991Z,98816.79
2018-04-17T10:58:43.727Z,98819.59
2018-04-17T11:01:11.380Z,98820.20
2018-04-17T11:03:38.961Z,98828.33
2018-04-17T11:06:07.438Z,98830.38
2018-04-17T11:08:35.041Z,98831.23
2018-04-17T11:11:02.622Z,98840.20
2018-04-17T11:13:30.345Z,98835.23
2018-04-17T11:15:58.580Z,98832.17
2018-04-17T11:18:26.160Z,98828.34
2018-04-17T11:20:53.888Z,98832.12
2018-04-17T11:23:21.481Z,98819.80
2018-04-17T11:25:49.130Z,98821.33
2018-04-17T11:28:16.845Z,98814.95
2018-04-17T11:30:44.505Z,98816.83
2018-04-17T11:33:12.101Z,98816.18
2018-04-17T11:35:39.748Z,98816.77
2018-04-17T11:38:07.337Z,98817.05
2018-04-17T11:40:35.149Z,98825.27
2018-04-17T11:43:02.876Z,98825.41
2018-04-17T11:45:30.461Z,98816.94
2018-04-17T11:47:58.038Z,98819.93
2018-04-17T11:50:25.692Z,98826.81
2018-04-17T11:52:53.280Z,98834.96
2018-04-17T11:55:20.856Z,98834.95
2018-04-17T11:57:48.653Z,98831.34
2018-04-17T12:00:16.305Z,98829.84
2018-04-17T12:02:43.951Z,98832.21
2018-04-17T12:05:11.743Z,98828.62
2018-04-17T12:07:39.357Z,98828.84
2018-04-17T12:10:06.967Z,98828.27
2018-04-17T12:12:34.643Z,98837.05
2018-04-17T12:15:02.226Z,98831.59
2018-04-17T12:17:29.795Z,98832.98
2018-04-17T12:19:57.496Z,98826.19
2018-04-17T12:22:25.137Z,98836.97
2018-04-17T12:24:52.716Z,98843.44
2018-04-17T12:27:20.407Z,98837.68
2018-04-17T12:29:48.079Z,98833.96
2018-04-17T12:32:15.696Z,98828.97
2018-04-17T12:34:43.413Z,98829.50
2018-04-17T12:37:10.983Z,98828.06
2018-04-17T12:39:38.555Z,98835.76
2018-04-17T12:42:06.465Z,98834.51
2018-04-17T12:44:34.048Z,98831.42
2018-04-17T12:47:01.644Z,98833.56
2018-04-17T12:49:29.272Z,98817.44
2018-04-17T12:51:56.869Z,98827.29
2018-04-17T12:54:24.479Z,98823.06
2018-04-17T12:56:52.123Z,98819.80
2018-04-17T12:59:19.756Z,98815.80
2018-04-17T13:01:47.378Z,98824.95
2018-04-17T13:04:15.065Z,98822.00
2018-04-17T13:06:42.643Z,98823.25
2018-04-17T13:09:10.272Z,98824.33
2018-04-17T13:11:37.987Z,98821.02
2018-04-17T13:14:05.624Z,98814.84
2018-04-17T13:16:33.983Z,98813.23
2018-04-17T13:19:01.756Z,98813.84
2018-04-17T13:21:29.390Z,98823.89
2018-04-17T13:23:56.962Z,98826.20
2018-04-17T13:26:24.702Z,98819.33
2018-04-17T13:28:53.037Z,98806.87
2018-04-17T13:31:20.636Z,98806.05
2018-04-17T13:33:48.312Z,98802.16
2018-04-17T13:36:15.944Z,98804.27
2018-04-17T13:38:43.609Z,98799.80
2018-04-17T13:41:11.296Z,98795.83
2018-04-17T13:43:39.516Z,98798.08
2018-04-17T13:46:07.106Z,98809.80
2018-04-17T13:48:34.770Z,98816.16
2018-04-17T13:51:02.412Z,98812.55
2018-04-17T13:53:29.997Z,98805.70
2018-04-17T13:55:57.636Z,98806.67
2018-04-17T13:58:25.220Z,98802.06
2018-04-17T14:00:52.861Z,98809.41
2018-04-17T14:03:20.490Z,98799.44
2018-04-17T14:05:48.103Z,98806.13
2018-04-17T14:08:15.692Z,98804.55
2018-04-17T14:10:43.386Z,98813.03
2018-04-17T14:13:10.964Z,98816.45
2018-04-17T14:15:38.599Z,98818.97
2018-04-17T14:18:06.329Z,98822.20
2018-04-17T14:20:33.979Z,98826.42
2018-04-17T14:23:01.578Z,98822.18
2018-04-17T14:25:29.342Z,98831.50
2018-04-17T14:27:56.910Z,98828.08
2018-04-17T14:30:24.549Z,98841.84
2018-04-17T14:32:52.328Z,98843.05
2018-04-17T14:35:19.979Z,98842.13
2018-04-17T14:37:47.632Z,98839.50
2018-04-17T14:40:15.357Z,98840.13
2018-04-17T14:42:42.956Z,98844.23
2018-04-17T14:45:11.399Z,98835.13
2018-04-17T14:47:39.109Z,98832.39
2018-04-17T14:50:06.699Z,98829.28
2018-04-17T14:52:34.310Z,98832.19
2018-04-17T14:55:02.056Z,98840.09
2018-04-17T14:57:29.731Z,98832.30
2018-04-17T14:59:57.377Z,98825.84
2018-04-17T15:02:25.016Z,98829.42
2018-04-17T15:04:53.161Z,98832.16
2018-04-17T15:07:20.816Z,98828.74
2018-04-17T15:09:48.522Z,98842.22
2018-04-17T15:12:16.127Z,98836.05
2018-04-17T15:14:43.711Z,98835.30
2018-04-17T15:17:11.467Z,98829.20
2018-04-17T15:19:39.126Z,98832.67
2018-04-17T15:22:06.724Z,98833.48
2018-04-17T15:24:34.355Z,98834.26
2018-04-17T15:27:01.959Z,98822.94
2018-04-17T15:29:29.572Z,98823.46
2018-04-17T15:31:57.204Z,98820.52
2018-04-17T15:34:24.813Z,98824.83
2018-04-17T15:36:52.408Z,98829.47
2018-04-17T15:39:20.058Z,98828.89
2018-04-17T15:41:47.696Z,98832.80
2018-04-17T15:44:15.345Z,98833.63
2018-04-17T15:46:43.060Z,98831.58
2018-04-17T15:49:10.661Z,98835.86
2018-04-17T15:51:38.263Z,98834.63
2018-04-17T15:54:05.993Z,98836.13
2018-04-17T15:56:33.636Z,98838.06
2018-04-17T15:59:02.004Z,98832.50
2018-04-17T16:01:29.767Z,98834.07
2018-04-17T16:03:57.372Z,98838.75
2018-04-17T16:06:24.966Z,98842.77
2018-04-17T16:08:52.698Z,98842.77
2018-04-17T16:11:20.284Z,98840.87
2018-04-17T16:13:47.937Z,98843.71
2018-04-17T16:16:16.255Z,98838.59
2018-04-17T16:18:43.906Z,98839.48
2018-04-17T16:21:11.506Z,98839.78
2018-04-17T16:23:39.168Z,98840.30
2018-04-17T16:26:06.776Z,98835.23
2018-04-17T16:28:34.385Z,98838.72
2018-04-17T16:31:02.335Z,98841.22
2018-04-17T16:33:29.985Z,98843.97
2018-04-17T16:35:57.629Z,98841.94
2018-04-17T16:38:25.341Z,98845.13
2018-04-17T16:40:53.035Z,98852.16
2018-04-17T16:43:20.700Z,98857.00
2018-04-17T16:45:48.453Z,98853.38
2018-04-17T16:48:17.068Z,98863.75
2018-04-17T16:50:44.653Z,98864.89
2018-04-17T16:53:12.272Z,98871.50
2018-04-17T16:55:40.543Z,98873.55
2018-04-17T16:58:08.118Z,98884.09
2018-04-17T17:00:35.867Z,98880.16
2018-04-17T17:03:03.465Z,98887.00
2018-04-17T17:05:31.116Z,98890.90
2018-04-17T17:07:58.833Z,98895.97
2018-04-17T17:10:26.477Z,98898.70
2018-04-17T17:12:54.124Z,98905.53
2018-04-17T17:15:21.840Z,98905.30
2018-04-17T17:17:49.419Z,98912.95
2018-04-17T17:20:17.014Z,98918.52
2018-04-17T17:22:44.749Z,98912.42
2018-04-17T17:25:12.438Z,98912.43
2018-04-17T17:27:40.028Z,98919.02
2018-04-17T17:30:07.832Z,98913.95
2018-04-17T17:32:35.494Z,98921.19
2018-04-17T17:35:03.063Z,98922.41
2018-04-17T17:37:30.780Z,98924.39
2018-04-17T17:39:58.364Z,98918.74
2018-04-17T17:42:26.000Z,98925.94
2018-04-17T17:44:53.627Z,98921.66
2018-04-17T17:47:21.235Z,98926.44
2018-04-17T17:49:49.073Z,98928.61
2018-04-17T17:52:16.776Z,98933.11
2018-04-17T17:54:44.417Z,98927.75
2018-04-17T17:57:11.997Z,98933.57
2018-04-17T17:59:39.673Z,98924.88
2018-04-17T18:02:07.307Z,98933.04
2018-04-17T18:04:34.916Z,98935.44
2018-04-17T18:07:05.573Z,98939.11
2018-04-17T18:09:33.225Z,98935.66
2018-04-17T18:12:00.801Z,98944.77
2018-04-17T18:14:28.456Z,98937.82
2018-04-17T18:16:56.048Z,98936.97
2018-04-17T18:19:23.620Z,98940.80
2018-04-17T18:21:51.315Z,98940.69
2018-04-17T18:24:18.976Z,98943.35
2018-04-17T18:26:46.580Z,98945.52
2018-04-17T18:29:14.340Z,98943.39
2018-04-17T18:31:41.998Z,98943.58
2018-04-17T18:34:09.608Z,98954.36
2018-04-17T18:36:37.315Z,98958.34
2018-04-17T18:39:05.029Z,98966.86
2018-04-17T18:41:32.667Z,98972.93
2018-04-17T18:44:00.304Z,98976.75
2018-04-17T18:46:27.918Z,98982.27
2018-04-17T18:48:55.531Z,98983.48
2018-04-17T18:51:23.373Z,98986.52
2018-04-17T18:53:51.021Z,98991.02
2018-04-17T18:56:18.612Z,98992.61
2018-04-17T18:58:46.264Z,98992.11
2018-04-17T19:01:13.853Z,99002.34
2018-04-17T19:03:41.443Z,99012.62
2018-04-17T19:06:09.118Z,99019.41
2018-04-17T19:08:36.813Z,99021.20
2018-04-17T19:11:04.405Z,99028.41
2018-04-17T19:13:32.048Z,99032.94
2018-04-17T19:15:59.686Z,99034.23
2018-04-17T19:18:27.325Z,99029.66
2018-04-17T19:20:54.956Z,99035.13
2018-04-17T19:23:22.531Z,99041.77
2018-04-17T19:25:51.029Z,99034.89
2018-04-17T19:28:19.788Z,99034.39
2018-04-17T19:30:48.175Z,99022.30
2018-04-17T19:33:15.836Z,99022.59
2018-04-17T19:35:43.589Z,99014.42
2018-04-17T19:38:11.257Z,99011.78
2018-04-17T19:40:38.904Z,99012.19
2018-04-17T19:43:06.571Z,98999.44
2018-04-17T19:45:34.211Z,98997.05
2018-04-17T19:48:02.348Z,98988.91
2018-04-17T19:50:30.072Z,98985.70
2018-04-17T19:52:58.427Z,98987.73
2018-04-17T19:55:26.009Z,98987.65
2018-04-17T19:57:53.651Z,98997.94
2018-04-17T20:00:21.426Z,98999.56
2018-04-17T20:02:49.068Z,99012.64
2018-04-17T20:05:16.878Z,99022.01
2018-04-17T20:07:45.356Z,99026.58
2018-04-17T20:10:12.997Z,99030.75
2018-04-17T20:12:40.645Z,99027.67
2018-04-17T20:15:08.240Z,99032.45
2018-04-17T20:17:35.819Z,99033.92
2018-04-17T20:20:03.589Z,99032.66
2018-04-17T20:22:31.223Z,99033.17
2018-04-17T20:24:58.869Z,99027.00
2018-04-17T20:27:26.560Z,99026.22
2018-04-17T20:29:54.139Z,99028.53
2018-04-17T20:32:21.724Z,99029.45
2018-04-17T20:34:49.369Z,99035.27
2018-04-17T20:37:16.985Z,99034.25
2018-04-17T20:39:44.569Z,99040.30
2018-04-17T20:42:12.530Z,99043.05
2018-04-17T20:44:40.241Z,99044.05
2018-04-17T20:47:07.892Z,99049.63
2018-04-17T20:49:35.712Z,99050.02
2018-04-17T20:52:03.363Z,99047.48
2018-04-17T20:54:31.118Z,99047.87
2018-04-17T20:56:58.796Z,99051.16
2018-04-17T20:59:26.466Z,99061.59
2018-04-17T21:01:54.086Z,99063.07
2018-04-17T21:04:21.810Z,99067.62
2018-04-17T21:06:49.403Z,99072.91
2018-04-17T21:09:17.003Z,99077.94
2018-04-17T21:11:44.645Z,99073.92
2018-04-17T21:14:12.269Z,99081.91
2018-04-17T21:16:39.857Z,99075.61
2018-04-17T21:19:09.572Z,99074.25
2018-04-17T21:21:37.228Z,99075.28
2018-04-17T21:24:04.815Z,99070.92
2018-04-17T21:26:32.589Z,99068.25
2018-04-17T21:29:00.185Z,99071.00
2018-04-17T21:31:27.866Z,99071.37
2018-04-17T21:33:55.616Z,99069.09
2018-04-17T21:36:23.184Z,99068.84
2018-04-17T21:38:50.779Z,99067.78
2018-04-17T21:41:18.454Z,99065.33
2018-04-17T21:43:46.028Z,99067.69
2018-04-17T21:46:13.600Z,99072.95
2018-04-17T21:48:41.215Z,99074.26
2018-04-17T21:51:08.856Z,99072.43
2018-04-17T21:53:36.549Z,99069.93
2018-04-17T21:56:04.395Z,99067.72
2018-04-17T21:58:32.000Z,99069.05
2018-04-17T22:00:59.571Z,99075.22
2018-04-17T22:03:27.271Z,99074.95
2018-04-17T22:05:54.859Z,99075.69
2018-04-17T22:08:22.429Z,99077.24
2018-04-17T22:10:50.160Z,99075.95
2018-04-17T22:13:17.727Z,99084.95
2018-04-17T22:15:45.381Z,99083.17
2018-04-17T22:18:12.997Z,99083.84
2018-04-17T22:20:40.608Z,99082.48
2018-04-17T22:23:08.212Z,99082.77
2018-04-17T22:25:35.951Z,99088.02
2018-04-17T22:28:03.547Z,99087.59
2018-04-17T22:30:31.120Z,99087.31
2018-04-17T22:32:58.824Z,99078.82
2018-04-17T22:35:26.466Z,99080.26
2018-04-17T22:37:54.130Z,99079.25
2018-04-17T22:40:21.859Z,99076.73
2018-04-17T22:42:49.454Z,99078.37
2018-04-17T22:45:17.056Z,99070.53
2018-04-17T22:47:44.796Z,99070.02
2018-04-17T22:50:12.457Z,99064.41
2018-04-17T22:52:40.624Z,99061.88
2018-04-17T22:55:08.284Z,99058.03
2018-04-17T22:57:35.928Z,99048.13
2018-04-17T23:00:03.581Z,99049.56
2018-04-17T23:02:31.182Z,99056.48
2018-04-17T23:04:58.747Z,99054.00
2018-04-17T23:07:26.324Z,99052.80
2018-04-17T23:09:54.033Z,99051.82
2018-04-17T23:12:21.617Z,99052.86
2018-04-17T23:14:49.190Z,99051.50
2018-04-17T23:17:16.830Z,99052.05
2018-04-17T23:19:44.457Z,99060.12
2018-04-17T23:22:14.712Z,99059.02
2018-04-17T23:24:42.420Z,99058.42
2018-04-17T23:27:10.010Z,99061.33
2018-04-17T23:29:37.600Z,99056.48
2018-04-17T23:32:05.236Z,99052.32
2018-04-17T23:34:32.815Z,99057.92
2018-04-17T23:37:00.393Z,99056.02
2018-04-17T23:39:28.129Z,99061.97
2018-04-17T23:41:55.712Z,99062.34
2018-04-17T23:44:23.292Z,99064.94
2018-04-17T23:46:51.016Z,99057.78
2018-04-17T23:49:18.645Z,99060.09
2018-04-17T23:51:46.265Z,99068.38
2018-04-17T23:54:13.891Z,99062.91
2018-04-17T23:56:41.464Z,99064.03
2018-04-17T23:59:09.111Z,99065.27
